createdAt,value
2024-01-28T00:01:45.290Z,2.91
2024-01-28T00:04:13.346Z,2.89
2024-01-28T00:06:41.494Z,2.88
2024-01-28T00:09:09.648Z,2.84
2024-01-28T00:11:38.017Z,2.82
2024-01-28T00:14:06.316Z,2.79
2024-01-28T00:16:35.092Z,2.77
2024-01-28T00:19:03.356Z,2.76
2024-01-28T00:21:31.472Z,2.72
2024-01-28T00:24:01.130Z,2.73
2024-01-28T00:26:29.373Z,2.73
2024-01-28T00:28:57.495Z,2.71
2024-01-28T00:31:25.484Z,2.71
2024-01-28T00:33:53.641Z,2.69
2024-01-28T00:36:22.495Z,2.68
2024-01-28T00:38:50.446Z,2.65
2024-01-28T00:41:28.110Z,2.62
2024-01-28T00:43:56.669Z,2.64
2024-01-28T00:46:24.824Z,2.63
2024-01-28T00:48:53.645Z,2.60
2024-01-28T00:51:21.672Z,2.58
2024-01-28T00:53:49.957Z,2.61
2024-01-28T00:56:18.786Z,2.61
2024-01-28T00:58:48.186Z,2.59
2024-01-28T01:01:16.218Z,2.61
2024-01-28T01:03:44.411Z,2.62
2024-01-28T01:06:13.036Z,2.65
2024-01-28T01:08:41.346Z,2.66
2024-01-28T01:11:09.937Z,2.65
2024-01-28T01:13:37.860Z,2.68
2024-01-28T01:16:06.605Z,2.67
2024-01-28T01:18:38.402Z,2.68
2024-01-28T01:21:07.525Z,2.71
2024-01-28T01:23:35.712Z,2.74
2024-01-28T01:26:04.073Z,2.73
2024-01-28T01:28:34.135Z,2.74
2024-01-28T01:31:05.237Z,2.78
2024-01-28T01:33:33.764Z,2.75
2024-01-28T01:36:02.949Z,2.78
2024-01-28T01:38:31.826Z,2.78
2024-01-28T01:41:00.594Z,2.79
2024-01-28T01:43:31.731Z,2.79
2024-01-28T01:46:00.145Z,2.79
2024-01-28T01:48:28.672Z,2.82
2024-01-28T01:50:57.661Z,2.79
2024-01-28T01:53:25.614Z,2.79
2024-01-28T01:55:56.041Z,2.81
2024-01-28T01:58:25.480Z,2.82
2024-01-28T02:00:54.422Z,2.85
2024-01-28T02:03:22.991Z,2.84
2024-01-28T02:05:51.201Z,2.84
2024-01-28T02:08:19.270Z,2.86
2024-01-28T02:10:49.164Z,2.86
2024-01-28T02:13:18.632Z,2.85
2024-01-28T02:15:47.086Z,2.86
2024-01-28T02:18:15.495Z,2.85
2024-01-28T02:20:46.353Z,2.85
2024-01-28T02:23:22.374Z,2.86
2024-01-28T02:25:54.284Z,2.88
2024-01-28T02:28:24.019Z,2.89
2024-01-28T02:30:52.434Z,2.88
2024-01-28T02:33:22.282Z,2.90
2024-01-28T02:35:50.283Z,2.89
2024-01-28T02:38:18.471Z,2.87
2024-01-28T02:40:47.650Z,2.87
2024-01-28T02:43:15.648Z,2.82
2024-01-28T02:45:45.280Z,2.84
2024-01-28T02:48:13.518Z,2.83
2024-01-28T02:50:42.794Z,2.79
2024-01-28T02:53:10.735Z,2.79
2024-01-28T02:55:39.841Z,2.74
2024-01-28T02:58:07.907Z,2.73
2024-01-28T03:00:37.233Z,2.70
2024-01-28T03:03:10.145Z,2.70
2024-01-28T03:05:38.729Z,2.63
2024-01-28T03:08:09.492Z,2.62
2024-01-28T03:10:40.338Z,2.63
2024-01-28T03:13:08.237Z,2.60
2024-01-28T03:15:38.129Z,2.61
2024-01-28T03:18:07.156Z,2.58
2024-01-28T03:20:35.626Z,2.57
2024-01-28T03:23:04.222Z,2.53
2024-01-28T03:25:33.086Z,2.51
2024-01-28T03:28:03.874Z,2.49
2024-01-28T03:30:31.898Z,2.49
2024-01-28T03:33:00.481Z,2.49
2024-01-28T03:35:28.544Z,2.47
2024-01-28T03:37:57.106Z,2.44
2024-01-28T03:40:25.304Z,2.44
2024-01-28T03:42:55.130Z,2.43
2024-01-28T03:45:23.966Z,2.44
2024-01-28T03:47:51.951Z,2.44
2024-01-28T03:50:21.177Z,2.42
2024-01-28T03:52:49.130Z,2.40
2024-01-28T03:55:17.873Z,2.40
2024-01-28T03:57:46.166Z,2.40
2024-01-28T04:00:15.176Z,2.38
2024-01-28T04:02:46.177Z,2.37
2024-01-28T04:05:15.754Z,2.40
2024-01-28T04:07:43.733Z,2.38
2024-01-28T04:10:15.901Z,2.36
2024-01-28T04:12:44.034Z,2.36
2024-01-28T04:15:13.667Z,2.31
2024-01-28T04:17:43.509Z,2.33
2024-01-28T04:20:13.482Z,2.34
2024-01-28T04:22:41.942Z,2.29
2024-01-28T04:25:12.835Z,2.28
2024-01-28T04:27:41.830Z,2.29
2024-01-28T04:30:11.256Z,2.30
2024-01-28T04:32:39.516Z,2.26
2024-01-28T04:35:08.117Z,2.24
2024-01-28T04:37:36.603Z,2.25
2024-01-28T04:40:05.548Z,2.23
2024-01-28T04:42:33.892Z,2.25
2024-01-28T04:45:01.959Z,2.24
2024-01-28T04:47:31.568Z,2.20
2024-01-28T04:50:00.256Z,2.19
2024-01-28T04:52:28.474Z,2.15
2024-01-28T04:54:56.721Z,2.14
2024-01-28T04:57:24.625Z,2.17
2024-01-28T04:59:52.637Z,2.16
2024-01-28T05:02:20.600Z,2.15
2024-01-28T05:04:48.890Z,2.15
2024-01-28T05:07:18.265Z,2.14
2024-01-28T05:09:46.942Z,2.14
2024-01-28T05:12:15.345Z,2.12
2024-01-28T05:14:44.808Z,2.11
2024-01-28T05:17:13.309Z,2.07
2024-01-28T05:19:41.395Z,2.05
2024-01-28T05:22:10.516Z,2.03
2024-01-28T05:24:39.554Z,2.04
2024-01-28T05:27:09.908Z,2.03
2024-01-28T05:29:39.161Z,2.03
2024-01-28T05:32:07.598Z,1.97
2024-01-28T05:34:35.625Z,1.96
2024-01-28T05:37:03.848Z,1.98
2024-01-28T05:39:31.802Z,1.98
2024-01-28T05:41:59.787Z,1.95
2024-01-28T05:44:27.848Z,1.97
2024-01-28T05:46:55.734Z,1.97
2024-01-28T05:49:23.718Z,1.97
2024-01-28T05:52:04.317Z,1.96
2024-01-28T05:54:33.938Z,1.96
2024-01-28T05:57:02.209Z,1.94
2024-01-28T05:59:30.116Z,1.94
2024-01-28T06:02:00.006Z,1.94
2024-01-28T06:04:28.345Z,1.96
2024-01-28T06:06:56.459Z,1.93
2024-01-28T06:09:24.586Z,1.94
2024-01-28T06:11:52.690Z,1.93
2024-01-28T06:14:21.134Z,1.92
2024-01-28T06:16:49.117Z,1.94
2024-01-28T06:19:17.776Z,1.96
2024-01-28T06:21:45.817Z,1.95
2024-01-28T06:24:14.127Z,1.97
2024-01-28T06:26:42.153Z,1.97
2024-01-28T06:29:10.769Z,1.99
2024-01-28T06:31:41.473Z,2.01
2024-01-28T06:34:09.514Z,2.03
2024-01-28T06:36:37.598Z,2.03
2024-01-28T06:39:06.466Z,2.00
2024-01-28T06:41:35.705Z,1.99
2024-01-28T06:44:05.311Z,1.97
2024-01-28T06:46:35.892Z,2.00
2024-01-28T06:49:05.168Z,2.03
2024-01-28T06:51:33.252Z,2.06
2024-01-28T06:54:01.231Z,2.07
2024-01-28T06:56:29.427Z,2.08
2024-01-28T06:58:57.479Z,2.09
2024-01-28T07:01:25.984Z,2.11
2024-01-28T07:03:54.227Z,2.16
2024-01-28T07:06:23.263Z,2.15
2024-01-28T07:08:51.352Z,2.17
2024-01-28T07:11:20.651Z,2.19
2024-01-28T07:13:48.769Z,2.23
2024-01-28T07:16:17.162Z,2.28
2024-01-28T07:18:46.404Z,2.23
2024-01-28T07:21:16.459Z,2.21
2024-01-28T07:23:44.498Z,2.24
2024-01-28T07:26:12.469Z,2.21
2024-01-28T07:28:40.696Z,2.19
2024-01-28T07:31:08.982Z,2.19
2024-01-28T07:33:37.268Z,2.20
2024-01-28T07:36:05.535Z,2.19
2024-01-28T07:38:46.434Z,2.21
2024-01-28T07:41:16.621Z,2.25
2024-01-28T07:43:46.115Z,2.27
2024-01-28T07:46:14.583Z,2.29
2024-01-28T07:48:44.119Z,2.28
2024-01-28T07:51:15.361Z,2.30
2024-01-28T07:53:46.592Z,2.29
2024-01-28T07:56:15.566Z,2.34
2024-01-28T07:58:44.242Z,2.36
2024-01-28T08:01:12.657Z,2.35
2024-01-28T08:03:40.767Z,2.35
2024-01-28T08:06:11.353Z,2.38
2024-01-28T08:08:39.408Z,2.42
2024-01-28T08:11:07.720Z,2.43
2024-01-28T08:13:35.863Z,2.42
2024-01-28T08:16:05.424Z,2.43
2024-01-28T08:18:33.474Z,2.44
2024-01-28T08:21:01.606Z,2.41
2024-01-28T08:23:30.219Z,2.40
2024-01-28T08:26:00.829Z,2.41
2024-01-28T08:28:29.126Z,2.39
2024-01-28T08:30:58.525Z,2.42
2024-01-28T08:33:26.776Z,2.51
2024-01-28T08:35:55.094Z,2.52
2024-01-28T08:38:25.763Z,2.56
2024-01-28T08:40:57.564Z,2.56
2024-01-28T08:43:25.763Z,2.58
2024-01-28T08:45:53.752Z,2.62
2024-01-28T08:48:22.579Z,2.72
2024-01-28T08:50:51.038Z,2.74
2024-01-28T08:53:19.046Z,2.77
2024-01-28T08:55:47.185Z,2.77
2024-01-28T08:58:15.259Z,2.82
2024-01-28T09:00:43.298Z,2.82
2024-01-28T09:03:11.481Z,2.81
2024-01-28T09:05:39.597Z,2.93
2024-01-28T09:08:08.944Z,2.91
2024-01-28T09:10:37.358Z,2.98
2024-01-28T09:13:06.173Z,3.00
2024-01-28T09:15:34.264Z,2.99
2024-01-28T09:18:03.310Z,2.98
2024-01-28T09:20:31.316Z,3.03
2024-01-28T09:22:59.403Z,3.01
2024-01-28T09:25:29.840Z,3.02
2024-01-28T09:27:58.086Z,3.09
2024-01-28T09:30:26.737Z,3.11
2024-01-28T09:32:54.942Z,3.17
2024-01-28T09:35:23.150Z,3.25
2024-01-28T09:37:51.331Z,3.28
2024-01-28T09:40:19.587Z,3.32
2024-01-28T09:43:20.537Z,3.33
2024-01-28T09:45:48.677Z,3.41
2024-01-28T09:48:17.691Z,3.44
2024-01-28T09:50:46.015Z,3.50
2024-01-28T09:53:15.151Z,3.55
2024-01-28T09:55:43.484Z,3.63
2024-01-28T09:58:11.760Z,3.77
2024-01-28T10:00:40.458Z,3.87
2024-01-28T10:03:08.875Z,3.91
2024-01-28T10:05:37.072Z,3.91
2024-01-28T10:08:07.626Z,3.99
2024-01-28T10:10:37.458Z,4.03
2024-01-28T10:13:06.210Z,4.08
2024-01-28T10:15:34.446Z,4.09
2024-01-28T10:18:02.553Z,4.24
2024-01-28T10:20:32.253Z,4.37
2024-01-28T10:23:02.137Z,4.42
2024-01-28T10:25:32.101Z,4.50
2024-01-28T10:28:03.408Z,4.55
2024-01-28T10:30:31.393Z,4.70
2024-01-28T10:32:59.384Z,4.73
2024-01-28T10:35:28.252Z,4.84
2024-01-28T10:38:00.364Z,4.99
2024-01-28T10:40:47.859Z,5.09
2024-01-28T10:43:19.482Z,5.31
2024-01-28T10:45:54.218Z,5.40
2024-01-28T10:48:24.998Z,5.49
2024-01-28T10:50:55.567Z,5.54
2024-01-28T10:53:26.200Z,5.48
2024-01-28T10:55:54.400Z,5.53
2024-01-28T10:58:23.084Z,5.68
2024-01-28T11:00:51.791Z,5.74
2024-01-28T11:03:19.915Z,5.73
2024-01-28T11:05:48.778Z,5.72
2024-01-28T11:08:17.360Z,5.80
2024-01-28T11:10:46.057Z,5.81
2024-01-28T11:13:15.305Z,5.79
2024-01-28T11:15:46.441Z,5.81
2024-01-28T11:18:19.152Z,5.87
2024-01-28T11:20:47.371Z,5.90
2024-01-28T11:23:19.345Z,5.89
2024-01-28T11:25:47.994Z,5.99
2024-01-28T11:28:17.511Z,6.01
2024-01-28T11:30:53.805Z,6.02
2024-01-28T11:33:22.450Z,5.97
2024-01-28T11:35:50.767Z,5.95
2024-01-28T11:38:25.855Z,5.97
2024-01-28T11:41:01.087Z,6.09
2024-01-28T11:43:29.521Z,6.09
2024-01-28T11:45:58.872Z,6.03
2024-01-28T11:48:26.988Z,5.99
2024-01-28T11:50:55.128Z,6.17
2024-01-28T11:53:23.008Z,6.19
2024-01-28T11:55:50.892Z,6.15
2024-01-28T11:58:20.595Z,6.18
2024-01-28T12:00:49.060Z,6.28
2024-01-28T12:03:19.545Z,6.26
2024-01-28T12:05:47.565Z,6.30
2024-01-28T12:08:26.021Z,6.31
2024-01-28T12:11:02.219Z,6.38
2024-01-28T12:13:30.352Z,6.48
2024-01-28T12:16:01.713Z,6.65
2024-01-28T12:18:40.487Z,6.69
2024-01-28T12:21:22.266Z,6.71
2024-01-28T12:23:55.161Z,6.68
2024-01-28T12:26:24.016Z,6.66
2024-01-28T12:28:54.316Z,6.80
2024-01-28T12:31:23.452Z,7.00
2024-01-28T12:33:52.810Z,7.14
2024-01-28T12:36:20.838Z,7.19
2024-01-28T12:38:49.106Z,7.29
2024-01-28T12:41:17.294Z,7.36
2024-01-28T12:43:52.776Z,7.37
2024-01-28T12:46:21.654Z,7.40
2024-01-28T12:48:50.140Z,7.36
2024-01-28T12:51:18.266Z,7.32
2024-01-28T12:53:50.610Z,7.30
2024-01-28T12:56:18.634Z,7.33
2024-01-28T12:58:46.997Z,7.35
2024-01-28T13:01:15.207Z,7.40
2024-01-28T13:03:44.354Z,7.41
2024-01-28T13:06:12.789Z,7.33
2024-01-28T13:08:42.827Z,7.26
2024-01-28T13:11:12.754Z,7.32
2024-01-28T13:13:43.058Z,7.24
2024-01-28T13:16:11.493Z,7.20
2024-01-28T13:18:39.814Z,7.10
2024-01-28T13:21:07.783Z,7.13
2024-01-28T13:23:37.229Z,7.08
2024-01-28T13:26:05.510Z,7.22
2024-01-28T13:28:33.597Z,7.34
2024-01-28T13:31:01.888Z,7.51
2024-01-28T13:33:30.184Z,7.59
2024-01-28T13:35:58.779Z,7.59
2024-01-28T13:38:26.878Z,7.48
2024-01-28T13:40:55.898Z,7.56
2024-01-28T13:43:23.893Z,7.66
2024-01-28T13:45:53.078Z,7.64
2024-01-28T13:48:21.277Z,7.55
2024-01-28T13:50:49.220Z,7.47
2024-01-28T13:53:17.182Z,7.36
2024-01-28T13:55:45.205Z,7.34
2024-01-28T13:58:14.871Z,7.33
2024-01-28T14:00:43.332Z,7.34
2024-01-28T14:03:13.269Z,7.40
2024-01-28T14:05:43.290Z,7.41
2024-01-28T14:08:14.243Z,7.48
2024-01-28T14:10:43.804Z,7.66
2024-01-28T14:13:11.857Z,7.76
2024-01-28T14:15:40.176Z,7.83
2024-01-28T14:18:09.487Z,7.82
2024-01-28T14:20:39.111Z,7.84
2024-01-28T14:23:08.580Z,7.81
2024-01-28T14:25:36.643Z,7.67
2024-01-28T14:28:05.809Z,7.60
2024-01-28T14:30:34.187Z,7.60
2024-01-28T14:33:02.624Z,7.69
2024-01-28T14:35:33.672Z,7.72
2024-01-28T14:38:04.248Z,7.76
2024-01-28T14:40:32.157Z,7.95
2024-01-28T14:43:09.356Z,7.92
2024-01-28T14:45:37.305Z,7.92
2024-01-28T14:48:07.232Z,7.79
2024-01-28T14:50:38.049Z,7.67
2024-01-28T14:53:06.608Z,7.58
2024-01-28T14:55:35.360Z,7.42
2024-01-28T14:58:04.775Z,7.36
2024-01-28T15:00:32.748Z,7.19
2024-01-28T15:03:00.777Z,7.13
2024-01-28T15:05:28.726Z,7.13
2024-01-28T15:07:56.997Z,6.94
2024-01-28T15:10:25.932Z,6.86
2024-01-28T15:12:54.162Z,6.84
2024-01-28T15:15:25.931Z,6.85
2024-01-28T15:17:54.574Z,6.93
2024-01-28T15:20:23.259Z,6.88
2024-01-28T15:22:52.264Z,6.90
2024-01-28T15:25:20.807Z,6.80
2024-01-28T15:27:49.163Z,6.70
2024-01-28T15:30:17.278Z,6.64
2024-01-28T15:32:45.342Z,6.53
2024-01-28T15:35:15.146Z,6.57
2024-01-28T15:37:48.022Z,6.45
2024-01-28T15:40:16.285Z,6.40
2024-01-28T15:42:44.151Z,6.37
2024-01-28T15:45:13.089Z,6.34
2024-01-28T15:47:43.473Z,6.37
2024-01-28T15:50:12.746Z,6.26
2024-01-28T15:52:41.431Z,6.21
2024-01-28T15:55:14.121Z,6.20
2024-01-28T15:57:49.961Z,6.19
2024-01-28T16:00:19.565Z,6.11
2024-01-28T16:02:47.588Z,6.01
2024-01-28T16:05:16.226Z,5.99
2024-01-28T16:07:46.236Z,5.93
2024-01-28T16:10:14.781Z,5.89
2024-01-28T16:12:43.060Z,5.97
2024-01-28T16:15:11.673Z,5.99
2024-01-28T16:17:39.967Z,6.07
2024-01-28T16:20:08.725Z,6.02
2024-01-28T16:22:36.819Z,5.96
2024-01-28T16:25:04.929Z,6.02
2024-01-28T16:27:33.079Z,6.07
2024-01-28T16:30:01.133Z,6.04
2024-01-28T16:32:29.907Z,5.97
2024-01-28T16:34:58.003Z,5.95
2024-01-28T16:37:27.236Z,5.89
2024-01-28T16:39:55.336Z,5.94
2024-01-28T16:42:23.455Z,5.99
2024-01-28T16:44:52.407Z,6.01
2024-01-28T16:47:21.637Z,5.94
2024-01-28T16:49:49.579Z,5.97
2024-01-28T16:52:21.475Z,5.83
2024-01-28T16:54:49.885Z,5.75
2024-01-28T16:57:18.664Z,5.78
2024-01-28T16:59:46.812Z,5.79
2024-01-28T17:02:14.769Z,5.77
2024-01-28T17:04:42.774Z,5.72
2024-01-28T17:07:13.351Z,5.73
2024-01-28T17:09:41.253Z,5.68
2024-01-28T17:12:09.396Z,5.68
2024-01-28T17:14:37.523Z,5.73
2024-01-28T17:17:06.546Z,5.74
2024-01-28T17:19:34.937Z,5.73
2024-01-28T17:22:03.228Z,5.71
2024-01-28T17:24:32.149Z,5.76
2024-01-28T17:27:03.673Z,5.73
2024-01-28T17:29:31.519Z,5.78
2024-01-28T17:32:01.420Z,5.82
2024-01-28T17:34:29.591Z,5.84
2024-01-28T17:36:58.564Z,5.75
2024-01-28T17:39:27.984Z,5.69
2024-01-28T17:41:57.503Z,5.66
2024-01-28T17:44:26.756Z,5.64
2024-01-28T17:46:54.713Z,5.61
2024-01-28T17:49:22.710Z,5.63
2024-01-28T17:51:51.093Z,5.63
2024-01-28T17:54:19.110Z,5.61
2024-01-28T17:56:47.024Z,5.58
2024-01-28T17:59:15.207Z,5.61
2024-01-28T18:01:43.291Z,5.58
2024-01-28T18:04:11.512Z,5.53
2024-01-28T18:06:39.832Z,5.59
2024-01-28T18:09:10.177Z,5.62
2024-01-28T18:11:39.440Z,5.62
2024-01-28T18:14:07.956Z,5.66
2024-01-28T18:16:37.308Z,5.64
2024-01-28T18:19:07.050Z,5.55
2024-01-28T18:21:36.062Z,5.47
2024-01-28T18:24:04.435Z,5.45
2024-01-28T18:26:32.432Z,5.48
2024-01-28T18:29:00.383Z,5.43
2024-01-28T18:31:28.378Z,5.47
2024-01-28T18:33:56.672Z,5.46
2024-01-28T18:36:28.874Z,5.48
2024-01-28T18:39:02.506Z,5.50
2024-01-28T18:41:31.935Z,5.50
2024-01-28T18:44:00.767Z,5.43
2024-01-28T18:46:29.212Z,5.40
2024-01-28T18:48:57.562Z,5.36
2024-01-28T18:51:26.282Z,5.36
2024-01-28T18:53:54.877Z,5.38
2024-01-28T18:56:24.394Z,5.34
2024-01-28T18:58:52.390Z,5.29
2024-01-28T19:01:21.226Z,5.30
2024-01-28T19:03:49.350Z,5.31
2024-01-28T19:06:17.607Z,5.31
2024-01-28T19:08:46.201Z,5.28
2024-01-28T19:11:14.248Z,5.37
2024-01-28T19:13:42.512Z,5.35
2024-01-28T19:16:10.830Z,5.38
2024-01-28T19:18:38.852Z,5.37
2024-01-28T19:21:07.660Z,5.30
2024-01-28T19:23:35.692Z,5.25
2024-01-28T19:26:04.372Z,5.24
2024-01-28T19:28:32.817Z,5.24
2024-01-28T19:31:03.130Z,5.21
2024-01-28T19:33:34.849Z,5.25
2024-01-28T19:36:03.893Z,5.28
2024-01-28T19:38:31.921Z,5.24
2024-01-28T19:41:01.562Z,5.21
2024-01-28T19:43:29.815Z,5.24
2024-01-28T19:45:58.314Z,5.20
2024-01-28T19:48:26.645Z,5.20
2024-01-28T19:50:54.699Z,5.20
2024-01-28T19:53:22.983Z,5.22
2024-01-28T19:55:51.305Z,5.20
2024-01-28T19:58:20.061Z,5.13
2024-01-28T20:00:50.812Z,5.16
2024-01-28T20:03:24.773Z,5.16
2024-01-28T20:05:52.999Z,5.16
2024-01-28T20:08:23.522Z,5.12
2024-01-28T20:11:00.803Z,5.15
2024-01-28T20:13:28.937Z,5.11
2024-01-28T20:15:57.074Z,5.08
2024-01-28T20:18:27.119Z,5.08
2024-01-28T20:20:55.557Z,5.11
2024-01-28T20:23:25.794Z,5.14
2024-01-28T20:25:56.214Z,5.10
2024-01-28T20:28:25.228Z,5.08
2024-01-28T20:30:53.530Z,5.08
2024-01-28T20:33:21.642Z,5.08
2024-01-28T20:35:51.737Z,5.11
2024-01-28T20:38:23.774Z,5.09
2024-01-28T20:40:52.801Z,5.11
2024-01-28T20:43:22.628Z,5.10
2024-01-28T20:45:50.780Z,5.10
2024-01-28T20:48:19.437Z,5.15
2024-01-28T20:50:49.093Z,5.17
2024-01-28T20:53:17.927Z,5.18
2024-01-28T20:55:46.511Z,5.16
2024-01-28T20:58:16.818Z,5.14
2024-01-28T21:00:45.220Z,5.16
2024-01-28T21:03:13.320Z,5.16
2024-01-28T21:05:42.416Z,5.16
2024-01-28T21:08:12.367Z,5.12
2024-01-28T21:10:40.692Z,5.14
2024-01-28T21:13:09.369Z,5.19
2024-01-28T21:15:37.561Z,5.24
2024-01-28T21:18:06.275Z,5.27
2024-01-28T21:20:34.227Z,5.25
2024-01-28T21:23:02.336Z,5.25
2024-01-28T21:25:30.658Z,5.24
2024-01-28T21:28:01.075Z,5.23
2024-01-28T21:30:29.347Z,5.21
2024-01-28T21:32:57.986Z,5.20
2024-01-28T21:35:26.260Z,5.19
2024-01-28T21:37:54.288Z,5.21
2024-01-28T21:40:23.296Z,5.21
2024-01-28T21:42:51.285Z,5.21
2024-01-28T21:45:19.522Z,5.25
2024-01-28T21:47:48.491Z,5.16
2024-01-28T21:50:16.641Z,5.20
2024-01-28T21:52:45.105Z,5.18
2024-01-28T21:55:14.525Z,5.19
2024-01-28T21:57:43.600Z,5.26
2024-01-28T22:00:12.557Z,5.27
2024-01-28T22:02:41.210Z,5.34
2024-01-28T22:05:12.042Z,5.34
2024-01-28T22:07:41.307Z,5.35
2024-01-28T22:10:12.517Z,5.34
2024-01-28T22:12:41.187Z,5.35
2024-01-28T22:15:11.231Z,5.33
2024-01-28T22:17:39.881Z,5.34
2024-01-28T22:20:08.997Z,5.39
2024-01-28T22:22:37.259Z,5.41
2024-01-28T22:25:06.080Z,5.36
2024-01-28T22:27:34.439Z,5.36
2024-01-28T22:30:02.601Z,5.41
2024-01-28T22:32:31.019Z,5.39
2024-01-28T22:34:59.069Z,5.41
2024-01-28T22:37:27.139Z,5.47
2024-01-28T22:39:55.188Z,5.48
2024-01-28T22:42:23.254Z,5.44
2024-01-28T22:44:51.396Z,5.42
2024-01-28T22:47:19.765Z,5.43
2024-01-28T22:49:48.194Z,5.49
2024-01-28T22:52:17.893Z,5.54
2024-01-28T22:54:46.361Z,5.54
2024-01-28T22:57:15.014Z,5.57
2024-01-28T22:59:43.346Z,5.56
2024-01-28T23:02:12.566Z,5.55
2024-01-28T23:04:40.841Z,5.56
2024-01-28T23:07:09.847Z,5.53
2024-01-28T23:09:38.118Z,5.57
2024-01-28T23:12:07.478Z,5.62
2024-01-28T23:14:35.976Z,5.63
2024-01-28T23:17:04.294Z,5.64
2024-01-28T23:19:32.707Z,5.61
2024-01-28T23:22:01.138Z,5.65
2024-01-28T23:24:29.280Z,5.62
2024-01-28T23:26:58.391Z,5.62
2024-01-28T23:29:26.572Z,5.63
2024-01-28T23:31:54.580Z,5.63
2024-01-28T23:34:22.646Z,5.60
2024-01-28T23:36:50.654Z,5.61
2024-01-28T23:39:18.842Z,5.66
2024-01-28T23:41:46.869Z,5.65
2024-01-28T23:44:14.995Z,5.59
2024-01-28T23:46:42.928Z,5.59
2024-01-28T23:49:14.715Z,5.65
2024-01-28T23:51:46.652Z,5.66
2024-01-28T23:54:15.626Z,5.68
2024-01-28T23:56:43.849Z,5.66
2024-01-28T23:59:12.270Z,5.66
